Pagina principală
METAR-TAF:

METAR-TAF

Aeroporturi :

Foz do Iguaçu, Paraná, Brazilia

Latitudine: 25-31S, longitudine: 054-35W, elevație: 180 m

Observații meteo curente

Raportul a fost făcut în urmă cu 48 de minute, la 16:00 UTC
Vânt 5 kt de la Sud/Sud-vest
Temperatură 13°C
Umiditate 58%
Presiune 1025 hPa
Vizibilitate de 10 km sau mai mult
Nori fragmentați la o înălțime de 3500 picior

METAR: SBFI 281600Z 21005KT 9999 BKN035 13/05 Q1025

Ora: 13:48 (16:48 UTC)

Prognoză

Raportul a fost făcut în urmă cu 7 ore și 48 de minute, la 09:00 UTC
Prognoză valabilă de la 28 ora 12 UTC la 29 ora 12 UTC
Vânt 5 kt de la Vest/Sud-vest
Vizibilitate: 9000 m
Nori împrăștiați la o înălțime de 1500 picior
Nori fragmentați la o înălțime de 4000 picior
Devenind
de la 28 ora 16 UTC la 28 ora 18 UTC
Vânt 5 kt de la Sud/Sud-vest

TAF: SBFI 280900Z 2812/2912 24005KT 9000 SCT015 BKN040 TX14/2818Z TN09/2909Z BECMG 2816/2818 20005KT RMK PES

Observații și prognoze meteo pentru peste 4.000 de aeroporturi (rapoarte METAR și TAF).

Stațiile disponibile sunt reprezentate pe hartă prin puncte galbene și roșii.

Țineți indicatorul mouse-ului pe punctul dorit pentru a vedea denumirea stației.

Apoi, faceți clic pentru a vedea observațiile și prognozele meteorologice.

Pentru a schimba harta: Pentru mărire, faceți clic pe butoanele verzi cu cruce neagră; pentru micșorare, pe butonul verde cu o liniuță; pentru hărți învecinate, pe săgețile verzi.


METAR-TAF: